Time;durP1;ratioP1;P1;durP2;ratioP2;P2;SDS_P1;SDS_P2;PMS_P1;PMS_P2;Temp;Humidity;BMP_temperature;BMP_pressure;BME280_temperature;BME280_humidity;BME280_pressure;Samples;Min_cycle;Max_cycle;Signal;HPM_P1;HPM_P2
2021/06/14 00:00:12;;;;;;;21.75;11.22;;;;;;;11.94;64.41;101522.03;1707460;81;25910;-63
2021/06/14 00:02:44;;;;;;;19.60;9.83;;;;;;;11.91;64.48;101518.58;1717586;80;25764;-63
2021/06/14 00:05:27;;;;;;;28.00;10.95;;;;;;;11.89;64.58;101521.31;1714073;81;27366;-63
2021/06/14 00:07:53;;;;;;;31.57;11.80;;;;;;;11.86;64.67;101524.11;1727143;81;26511;-63
2021/06/14 00:10:21;;;;;;;21.52;11.15;;;;;;;11.83;64.71;101526.90;1734010;80;25765;-64
2021/06/14 00:12:49;;;;;;;22.77;11.18;;;;;;;11.78;64.81;101522.15;1722294;80;25737;-63
2021/06/14 00:15:16;;;;;;;27.48;9.88;;;;;;;11.75;64.90;101522.22;1715484;81;25797;-63
2021/06/14 00:17:42;;;;;;;25.23;11.35;;;;;;;11.70;64.99;101520.16;1728153;80;27480;-63
2021/06/14 00:20:15;;;;;;;24.90;10.90;;;;;;;11.69;65.04;101530.48;1724055;81;25946;-63
2021/06/14 00:22:44;;;;;;;18.95;10.18;;;;;;;11.65;65.14;101528.37;1714681;81;26295;-63
2021/06/14 00:25:16;;;;;;;28.47;11.37;;;;;;;11.61;65.20;101519.13;1720257;81;25910;-63
2021/06/14 00:27:42;;;;;;;22.15;11.50;;;;;;;11.58;65.34;101524.59;1713390;80;25793;-63
2021/06/14 00:30:12;;;;;;;27.55;11.55;;;;;;;11.55;65.38;101525.58;1728968;81;27383;-63
2021/06/14 00:32:37;;;;;;;23.62;10.98;;;;;;;11.52;65.45;101522.12;1708323;81;25820;-63
2021/06/14 00:35:05;;;;;;;28.52;12.93;;;;;;;11.49;65.53;101526.25;1708258;81;25950;-63
2021/06/14 00:37:32;;;;;;;24.35;11.15;;;;;;;11.47;65.60;101518.70;1717528;81;25759;-63
2021/06/14 00:39:58;;;;;;;38.42;12.07;;;;;;;11.44;65.67;101520.15;1728513;80;25819;-63
2021/06/14 00:42:24;;;;;;;26.12;11.22;;;;;;;11.42;65.73;101519.32;1716021;81;27465;-63
2021/06/14 00:44:52;;;;;;;22.60;10.95;;;;;;;11.41;65.78;101524.28;1723009;81;27269;-63
2021/06/14 00:47:20;;;;;;;19.67;10.68;;;;;;;11.37;65.87;101522.16;1712127;81;26205;-63
2021/06/14 00:49:47;;;;;;;30.35;12.23;;;;;;;11.34;65.94;101518.23;1716940;81;26567;-63
2021/06/14 00:52:13;;;;;;;28.30;11.33;;;;;;;11.31;65.99;101521.89;1715838;81;25824;-63
2021/06/14 00:54:39;;;;;;;23.65;11.60;;;;;;;11.29;66.11;101517.50;1715879;81;27462;-63
2021/06/14 00:57:11;;;;;;;17.50;10.20;;;;;;;11.28;66.21;101516.62;1727387;81;26621;-63
2021/06/14 00:59:37;;;;;;;26.05;11.30;;;;;;;11.26;66.31;101517.14;1718357;81;25789;-63
2021/06/14 01:02:05;;;;;;;23.55;10.53;;;;;;;11.25;66.38;101519.41;1719290;81;25728;-63
2021/06/14 01:04:33;;;;;;;26.05;12.47;;;;;;;11.21;66.44;101512.38;1716543;81;25707;-63
2021/06/14 01:07:00;;;;;;;22.20;11.48;;;;;;;11.21;66.48;101516.88;1723978;81;27326;-63
2021/06/14 01:09:26;;;;;;;34.50;13.48;;;;;;;11.18;66.51;101513.82;1724267;81;25928;-63
2021/06/14 01:12:04;;;;;;;35.20;11.93;;;;;;;11.16;66.61;101510.77;1722072;81;25956;-63
2021/06/14 01:14:53;;;;;;;22.67;10.35;;;;;;;11.15;66.58;101513.04;1719200;81;25985;-63
2021/06/14 01:17:42;;;;;;;27.17;11.60;;;;;;;11.08;66.59;101511.48;1717492;81;26464;-63
2021/06/14 01:20:36;;;;;;;30.35;11.97;;;;;;;11.00;66.71;101512.59;1729903;80;27404;-63
2021/06/14 01:23:17;;;;;;;21.70;10.90;;;;;;;10.97;66.84;101518.52;1724833;81;25865;-63
2021/06/14 01:26:02;;;;;;;24.77;12.37;;;;;;;10.95;66.88;101516.34;1729746;81;26108;-63
2021/06/14 01:28:32;;;;;;;28.67;10.90;;;;;;;10.91;67.04;101520.93;1705842;81;26426;-63
2021/06/14 01:31:00;;;;;;;29.77;11.83;;;;;;;10.91;67.15;101524.08;1723575;80;25921;-63
2021/06/14 01:33:29;;;;;;;22.15;10.60;;;;;;;10.92;67.23;101511.08;1736714;81;27416;-63
2021/06/14 01:36:06;;;;;;;23.73;11.03;;;;;;;10.91;67.25;101519.59;1721304;81;25723;-63
2021/06/14 01:38:40;;;;;;;28.38;11.63;;;;;;;10.91;67.27;101513.34;1714291;81;25794;-63
2021/06/14 01:41:08;;;;;;;27.90;10.72;;;;;;;10.90;67.36;101521.85;1738424;80;27947;-63
2021/06/14 01:43:37;;;;;;;23.42;11.33;;;;;;;10.90;67.43;101518.30;1743954;80;25787;-63
2021/06/14 01:46:08;;;;;;;23.80;11.73;;;;;;;10.90;67.51;101523.66;1751051;80;27448;-63
2021/06/14 01:48:36;;;;;;;27.00;12.07;;;;;;;10.91;67.56;101521.39;1751259;80;25847;-63
2021/06/14 01:51:05;;;;;;;26.20;11.53;;;;;;;10.92;67.57;101523.15;1747896;80;25846;-63
2021/06/14 01:53:32;;;;;;;32.63;11.25;;;;;;;10.92;67.58;101521.34;1742469;80;25756;-63
2021/06/14 01:55:59;;;;;;;23.45;10.82;;;;;;;10.91;67.63;101515.56;1752881;80;25867;-63
2021/06/14 01:58:25;;;;;;;26.70;10.90;;;;;;;10.91;67.66;101524.08;1735618;80;27367;-63
2021/06/14 02:00:54;;;;;;;19.37;9.98;;;;;;;10.89;67.73;101518.76;1750934;80;27251;-63
2021/06/14 02:03:21;;;;;;;24.15;11.55;;;;;;;10.88;67.74;101517.46;1744187;80;25774;-63
2021/06/14 02:05:49;;;;;;;23.98;10.93;;;;;;;10.88;67.81;101524.17;1753605;80;25721;-63
2021/06/14 02:08:18;;;;;;;20.88;10.20;;;;;;;10.86;67.83;101517.51;1749841;80;25962;-62
2021/06/14 02:10:47;;;;;;;27.15;10.70;;;;;;;10.87;67.94;101519.27;1768155;80;27467;-63
2021/06/14 02:13:17;;;;;;;23.25;10.80;;;;;;;10.87;68.03;101516.58;1757055;80;25686;-63
2021/06/14 02:15:43;;;;;;;34.40;10.58;;;;;;;10.89;68.09;101513.39;1755661;80;25792;-63
2021/06/14 02:18:13;;;;;;;25.32;11.12;;;;;;;10.92;68.09;101513.77;1740913;80;44782;-63
2021/06/14 02:20:43;;;;;;;29.82;10.82;;;;;;;10.95;68.13;101510.98;1740387;80;26435;-63
2021/06/14 02:23:12;;;;;;;21.07;11.08;;;;;;;10.97;68.08;101509.13;1731718;80;27389;-63
2021/06/14 02:25:39;;;;;;;25.52;11.35;;;;;;;10.99;68.15;101508.63;1748323;80;25852;-63
2021/06/14 02:28:05;;;;;;;20.62;10.00;;;;;;;11.01;68.15;101501.41;1738980;80;25815;-63
2021/06/14 02:30:33;;;;;;;26.82;11.50;;;;;;;11.01;68.17;101499.59;1743262;80;25835;-63
2021/06/14 02:32:59;;;;;;;29.32;11.85;;;;;;;10.98;68.19;101505.52;1751058;80;25735;-63
2021/06/14 02:35:28;;;;;;;24.65;11.63;;;;;;;10.95;68.30;101490.41;1743192;80;28112;-63
2021/06/14 02:37:59;;;;;;;25.37;11.48;;;;;;;10.94;68.32;101487.30;1741003;80;25813;-63
2021/06/14 02:40:30;;;;;;;24.32;10.50;;;;;;;10.94;68.52;101479.72;1736185;80;25779;-63
2021/06/14 02:43:07;;;;;;;23.50;10.08;;;;;;;10.92;68.52;101489.62;1735422;80;26315;-63
2021/06/14 02:45:38;;;;;;;23.73;11.20;;;;;;;10.92;68.52;101481.58;1734668;80;26021;-63
2021/06/14 02:48:06;;;;;;;25.00;10.72;;;;;;;10.92;68.57;101482.91;1731794;80;28064;-63
2021/06/14 02:50:37;;;;;;;27.62;13.00;;;;;;;10.93;68.60;101481.98;1725499;80;25783;-63
2021/06/14 02:53:07;;;;;;;;;;;;;;;10.92;68.64;101481.58;1735019;80;25754;-63
2021/06/14 02:55:38;;;;;;;23.67;10.63;;;;;;;10.91;68.69;101482.04;1737126;80;26074;-63
2021/06/14 02:58:07;;;;;;;26.87;11.25;;;;;;;10.89;68.67;101484.35;1735642;81;25966;-63
2021/06/14 03:00:33;;;;;;;19.37;10.63;;;;;;;10.88;68.64;101483.94;1735346;80;27412;-63
2021/06/14 03:03:04;;;;;;;25.15;11.65;;;;;;;10.86;68.63;101487.13;1727680;80;25705;-63
2021/06/14 03:05:32;;;;;;;30.25;11.03;;;;;;;10.85;68.66;101484.91;1744868;80;26095;-63
2021/06/14 03:08:00;;;;;;;22.27;11.00;;;;;;;10.83;68.61;101482.73;1729933;80;25755;-63
2021/06/14 03:10:32;;;;;;;25.23;11.48;;;;;;;10.84;68.68;101482.28;1731564;80;25799;-63
2021/06/14 03:13:03;;;;;;;29.70;11.53;;;;;;;10.84;68.71;101488.52;1738568;80;27550;-63
2021/06/14 03:15:31;;;;;;;24.05;11.38;;;;;;;10.85;68.69;101488.05;1733035;80;25898;-63
2021/06/14 03:17:59;;;;;;;32.67;11.20;;;;;;;10.84;68.67;101484.49;1744723;80;25305;-63
2021/06/14 03:20:27;;;;;;;24.85;12.00;;;;;;;10.84;68.70;101481.81;1724093;80;26435;-63
2021/06/14 03:22:54;;;;;;;22.13;11.43;;;;;;;10.85;68.69;101481.34;1744325;80;25721;-63
2021/06/14 03:25:24;;;;;;;24.95;11.20;;;;;;;10.84;68.71;101483.62;1732378;80;27458;-63
2021/06/14 03:27:55;;;;;;;23.70;11.53;;;;;;;10.83;68.76;101480.52;1732426;80;25736;-63
2021/06/14 03:30:27;;;;;;;28.42;12.70;;;;;;;10.84;68.81;101482.28;1725252;80;28533;-63
2021/06/14 03:32:54;;;;;;;30.60;11.75;;;;;;;10.86;68.81;101483.11;1715970;80;26094;-63
2021/06/14 03:35:22;;;;;;;26.60;12.58;;;;;;;10.87;68.81;101484.40;1735621;80;27937;-63
2021/06/14 03:37:51;;;;;;;27.25;12.25;;;;;;;10.86;68.79;101484.45;1733636;80;28483;-63
2021/06/14 03:40:18;;;;;;;26.90;11.45;;;;;;;10.86;68.81;101488.47;1727938;80;26007;-63
2021/06/14 03:42:45;;;;;;;24.63;10.95;;;;;;;10.87;68.84;101487.55;1725802;81;25840;-63
2021/06/14 03:45:13;;;;;;;23.27;11.33;;;;;;;10.87;68.84;101488.42;1725021;80;26866;-63
2021/06/14 03:47:40;;;;;;;20.68;10.95;;;;;;;10.89;68.90;101492.40;1733850;81;26217;-63
2021/06/14 03:50:10;;;;;;;28.52;11.65;;;;;;;10.93;68.95;101492.25;1715342;81;27812;-63
2021/06/14 03:52:42;;;;;;;26.05;11.80;;;;;;;10.96;68.97;101492.62;1720956;81;25883;-63
2021/06/14 03:55:10;;;;;;;;;;;;;;;11.02;68.98;101500.48;1718601;80;25796;-63
2021/06/14 03:57:38;;;;;;;24.12;10.90;;;;;;;11.06;69.03;101503.48;1726931;81;25806;-63
2021/06/14 04:00:09;;;;;;;26.52;11.33;;;;;;;11.09;69.04;101499.82;1660284;83;25743;-63
2021/06/14 04:02:35;;;;;;;21.07;10.32;;;;;;;11.09;68.76;101475.67;1725712;81;25966;-63
2021/06/14 04:05:03;;;;;;;25.27;11.57;;;;;;;11.09;68.76;101475.67;1728250;80;25330;-63
2021/06/14 04:07:28;;;;;;;21.70;12.05;;;;;;;11.26;69.07;101495.67;1721454;80;25824;-63
2021/06/14 04:09:59;;;;;;;26.33;11.25;;;;;;;11.32;69.09;101499.49;1720197;81;25801;-63
2021/06/14 04:12:22;;;;;;;24.43;10.98;;;;;;;11.36;69.13;101496.25;1729084;81;26499;-63
2021/06/14 04:14:48;;;;;;;22.20;10.03;;;;;;;11.39;69.13;101502.85;1727875;81;29588;-63
2021/06/14 04:17:16;;;;;;;22.93;9.88;;;;;;;11.45;69.14;101508.48;1723028;81;25731;-63
2021/06/14 04:19:41;;;;;;;25.92;11.30;;;;;;;11.50;69.17;101500.69;1716224;80;25702;-63
2021/06/14 04:22:09;;;;;;;25.70;11.33;;;;;;;11.55;69.16;101500.53;1715409;81;25730;-63
2021/06/14 04:24:35;;;;;;;27.22;10.50;;;;;;;11.60;69.08;101499.91;1713267;80;25696;-63
2021/06/14 04:27:02;;;;;;;20.23;10.13;;;;;;;11.66;69.09;101501.05;1731593;80;27536;-63
2021/06/14 04:29:30;;;;;;;23.07;10.32;;;;;;;11.70;69.02;101489.27;1722564;81;26129;-63
2021/06/14 04:31:58;;;;;;;24.65;11.35;;;;;;;11.77;69.02;101494.87;1713346;80;25735;-63
2021/06/14 04:34:27;;;;;;;21.50;10.32;;;;;;;11.81;68.95;101492.50;1725803;80;26560;-63
2021/06/14 04:36:53;;;;;;;24.75;11.80;;;;;;;11.87;68.87;101484.69;1725828;81;25775;-63
2021/06/14 04:39:21;;;;;;;19.05;9.60;;;;;;;11.93;68.82;101490.72;1718829;80;27385;-63
2021/06/14 04:41:48;;;;;;;26.90;10.88;;;;;;;12.00;68.88;101485.55;1713826;81;25940;-63
2021/06/14 04:44:14;;;;;;;26.40;10.20;;;;;;;12.08;68.82;101490.64;1711749;81;25810;-63
2021/06/14 04:46:40;;;;;;;25.45;11.00;;;;;;;12.18;68.76;101485.34;1710353;81;25887;-63
2021/06/14 04:49:07;;;;;;;21.70;10.25;;;;;;;12.24;68.70;101484.24;1707342;81;25693;-63
2021/06/14 04:51:33;;;;;;;24.77;10.82;;;;;;;12.33;68.65;101479.87;1710294;81;29591;-63
2021/06/14 04:54:00;;;;;;;27.58;11.78;;;;;;;12.42;68.57;101483.56;1715032;81;25781;-63
2021/06/14 04:56:26;;;;;;;21.37;10.53;;;;;;;12.50;68.49;101485.48;1711672;80;26391;-63
2021/06/14 04:58:52;;;;;;;27.67;10.20;;;;;;;12.58;68.42;101482.05;1715529;81;25778;-63
2021/06/14 05:01:19;;;;;;;26.23;10.70;;;;;;;12.66;68.29;101481.75;1718900;81;25805;-63
2021/06/14 05:03:45;;;;;;;25.20;10.98;;;;;;;12.73;68.17;101481.05;1708919;81;27379;-63
2021/06/14 05:06:11;;;;;;;30.23;10.78;;;;;;;12.77;68.09;101480.86;1717670;81;25840;-63
2021/06/14 05:08:38;;;;;;;25.27;9.45;;;;;;;12.85;68.01;101484.59;1712762;81;25825;-63
2021/06/14 05:11:05;;;;;;;26.77;10.38;;;;;;;12.91;67.93;101479.85;1711950;80;25808;-63
2021/06/14 05:13:35;;;;;;;25.25;9.75;;;;;;;12.99;67.82;101483.58;1717379;81;25851;-63
2021/06/14 05:16:02;;;;;;;22.20;9.65;;;;;;;13.06;67.73;101486.88;1698047;81;29525;-63
2021/06/14 05:18:28;;;;;;;20.48;9.25;;;;;;;13.11;67.64;101477.67;1708977;81;26164;-63
2021/06/14 05:20:54;;;;;;;22.80;10.48;;;;;;;13.19;67.52;101481.44;1703861;81;26306;-62
2021/06/14 05:23:19;;;;;;;21.00;10.40;;;;;;;13.23;67.41;101477.20;1706889;81;26448;-63
2021/06/14 05:25:48;;;;;;;23.10;9.88;;;;;;;13.29;67.33;101483.69;1712673;81;25844;-63
2021/06/14 05:28:15;;;;;;;32.08;11.28;;;;;;;13.36;67.26;101480.27;1714130;81;27482;-62
2021/06/14 05:30:42;;;;;;;31.20;9.80;;;;;;;13.45;67.19;101482.58;1701659;81;25777;-63
2021/06/14 05:33:08;;;;;;;24.52;9.90;;;;;;;13.54;67.10;101484.89;1722270;81;25908;-63
2021/06/14 05:35:37;;;;;;;24.85;9.85;;;;;;;13.64;67.00;101485.38;1712688;81;25781;-63
2021/06/14 05:38:07;;;;;;;26.12;9.10;;;;;;;13.73;66.89;101493.06;1698092;81;25857;-63
2021/06/14 05:40:37;;;;;;;23.25;9.50;;;;;;;13.78;66.79;101490.17;1707441;81;27617;-63
2021/06/14 05:43:03;;;;;;;20.43;8.60;;;;;;;13.84;66.71;101483.17;1697439;81;25725;-63
2021/06/14 05:45:29;;;;;;;27.40;9.45;;;;;;;13.92;66.66;101490.45;1699590;82;25821;-63
2021/06/14 05:47:55;;;;;;;21.93;9.35;;;;;;;14.01;66.55;101491.86;1700342;81;26042;-63
2021/06/14 05:50:23;;;;;;;17.87;8.98;;;;;;;14.07;66.53;101491.13;1703850;82;27955;-63
2021/06/14 05:52:50;;;;;;;28.12;9.50;;;;;;;14.14;66.48;101488.55;1679140;83;26627;-63
2021/06/14 05:55:18;;;;;;;20.48;8.55;;;;;;;14.24;66.40;101497.98;1705240;81;26428;-63
2021/06/14 05:57:47;;;;;;;16.80;8.88;;;;;;;14.32;66.34;101494.94;1671102;84;25992;-63
2021/06/14 06:00:17;;;;;;;25.08;9.98;;;;;;;14.40;66.27;101487.37;1702803;82;25854;-63
2021/06/14 06:02:44;;;;;;;20.97;8.20;;;;;;;14.48;66.24;101495.16;1696935;82;26465;-64
2021/06/14 06:05:13;;;;;;;26.25;8.43;;;;;;;14.50;66.01;101493.27;1697359;82;27488;-64
2021/06/14 06:07:38;;;;;;;23.70;8.23;;;;;;;14.50;66.05;101493.27;1696016;82;25816;-63
2021/06/14 06:10:10;;;;;;;23.70;8.33;;;;;;;14.53;66.05;101497.16;1697486;82;25801;-62
2021/06/14 06:12:37;;;;;;;23.10;8.23;;;;;;;14.58;66.05;101500.05;1693996;82;26417;-62
2021/06/14 06:15:08;;;;;;;19.40;7.90;;;;;;;14.63;65.98;101498.97;1693004;82;26269;-64
2021/06/14 06:17:36;;;;;;;19.15;8.13;;;;;;;14.67;65.96;101489.78;1708599;82;27373;-63
2021/06/14 06:20:11;;;;;;;24.87;8.40;;;;;;;14.72;65.96;101495.84;1697328;82;25784;-63
2021/06/14 06:22:39;;;;;;;19.92;7.25;;;;;;;14.77;65.95;101499.20;1693782;82;25997;-63
2021/06/14 06:25:12;;;;;;;22.07;7.53;;;;;;;14.86;65.95;101498.28;1707760;82;26430;-63
2021/06/14 06:27:38;;;;;;;16.35;6.85;;;;;;;14.95;65.95;101492.92;1695645;82;25823;-63
2021/06/14 06:30:07;;;;;;;16.67;6.95;;;;;;;15.03;65.86;101501.53;1703607;82;28044;-64
2021/06/14 06:32:34;;;;;;;35.43;7.30;;;;;;;15.10;65.80;101502.98;1708354;82;26518;-72
2021/06/14 06:35:00;;;;;;;15.85;6.28;;;;;;;15.14;65.77;101491.08;1699545;82;26481;-64
2021/06/14 06:37:27;;;;;;;15.43;7.00;;;;;;;15.22;65.76;101494.28;1700591;82;27047;-65
2021/06/14 06:39:53;;;;;;;27.15;8.03;;;;;;;15.26;65.67;101493.18;1696963;82;26590;-64
2021/06/14 06:42:19;;;;;;;20.52;6.90;;;;;;;15.36;65.64;101496.78;1714293;81;28160;-64
2021/06/14 06:44:44;;;;;;;22.27;7.05;;;;;;;15.42;65.54;101497.34;1718971;81;25770;-63
2021/06/14 06:47:10;;;;;;;16.93;7.53;;;;;;;15.48;65.43;101505.63;1722590;80;25775;-63
2021/06/14 06:49:36;;;;;;;20.92;8.08;;;;;;;15.52;65.32;101505.88;1713700;81;27945;-64
2021/06/14 06:52:03;;;;;;;19.87;7.85;;;;;;;15.57;65.19;101502.02;1718124;81;26289;-63
2021/06/14 06:54:29;;;;;;;24.75;8.20;;;;;;;15.62;65.16;101503.10;1734141;81;27487;-64
2021/06/14 06:56:56;;;;;;;14.95;8.65;;;;;;;15.68;65.04;101503.27;1716022;81;25766;-63
2021/06/14 06:59:25;;;;;;;24.15;9.05;;;;;;;15.75;64.99;101499.30;1728663;81;25308;-64
2021/06/14 07:01:52;;;;;;;21.17;8.75;;;;;;;15.82;64.86;101493.98;1683582;82;26501;-62
2021/06/14 07:04:19;;;;;;;21.35;8.73;;;;;;;15.92;64.77;101493.90;1719003;81;25774;-62
2021/06/14 07:06:45;;;;;;;20.15;7.65;;;;;;;16.02;64.65;101498.34;1682358;82;27519;-63
2021/06/14 07:09:13;;;;;;;24.37;8.55;;;;;;;16.13;64.42;101494.61;1652977;84;26516;-66
2021/06/14 07:11:41;;;;;;;21.07;8.50;;;;;;;16.16;63.81;101494.44;1715806;81;25720;-66
2021/06/14 07:14:07;;;;;;;16.87;8.48;;;;;;;16.23;63.86;101491.80;1714484;81;26572;-67
2021/06/14 07:16:34;;;;;;;24.70;8.73;;;;;;;16.34;63.69;101488.52;1722302;81;25887;-64
2021/06/14 07:19:02;;;;;;;20.75;7.60;;;;;;;16.41;63.29;101493.52;1715195;81;27444;-63
2021/06/14 07:21:29;;;;;;;17.48;7.10;;;;;;;16.47;63.14;101501.31;1730576;81;25769;-66
2021/06/14 07:23:56;;;;;;;15.68;7.37;;;;;;;16.55;62.79;101495.00;1721575;81;25775;-64
2021/06/14 07:26:24;;;;;;;19.77;7.85;;;;;;;16.63;62.40;101488.30;1720839;81;26264;-64
2021/06/14 07:28:54;;;;;;;14.93;6.53;;;;;;;16.80;62.32;101488.27;1719515;81;25769;-64
2021/06/14 07:31:20;;;;;;;16.80;7.90;;;;;;;16.91;61.88;101487.66;1723097;81;25800;-64
2021/06/14 07:33:47;;;;;;;14.20;7.70;;;;;;;17.02;61.59;101489.28;1691855;82;27107;-65
2021/06/14 07:36:16;;;;;;;15.80;7.15;;;;;;;17.18;61.62;101484.27;1726515;80;25929;-64
2021/06/14 07:38:43;;;;;;;19.10;7.37;;;;;;;17.37;61.41;101480.48;1689908;82;25929;-66
2021/06/14 07:41:10;;;;;;;17.87;7.15;;;;;;;17.55;61.22;101481.24;1716861;79;26481;-67
2021/06/14 07:43:37;;;;;;;17.37;7.25;;;;;;;17.59;60.88;101478.74;1737734;80;27572;-63
2021/06/14 07:46:03;;;;;;;20.00;6.90;;;;;;;17.58;60.34;101479.70;1747257;80;26097;-64
2021/06/14 07:48:32;;;;;;;15.95;6.20;;;;;;;17.64;60.34;101475.28;1747480;80;26012;-64
2021/06/14 07:50:59;;;;;;;19.32;6.85;;;;;;;17.64;59.91;101482.93;1740651;80;25803;-63
2021/06/14 07:53:27;;;;;;;19.10;6.95;;;;;;;17.57;59.78;101476.12;1747853;80;25781;-66
2021/06/14 07:55:55;;;;;;;20.90;6.85;;;;;;;17.50;59.51;101482.88;1745586;80;27397;-63
2021/06/14 07:58:22;;;;;;;14.35;6.20;;;;;;;17.41;59.48;101477.98;1711147;82;25554;-62
2021/06/14 08:00:48;;;;;;;17.73;6.75;;;;;;;17.32;59.07;101477.17;1741972;80;25759;-66
2021/06/14 08:03:22;;;;;;;19.75;6.00;;;;;;;17.27;59.18;101475.20;1742599;80;26524;-64
2021/06/14 08:05:49;;;;;;;13.25;5.97;;;;;;;17.32;59.04;101472.62;1733542;80;25850;-64
2021/06/14 08:08:16;;;;;;;15.32;5.87;;;;;;;17.39;59.10;101475.84;1745425;80;27426;-67
2021/06/14 08:10:45;;;;;;;14.23;5.75;;;;;;;17.51;59.02;101478.72;1730596;80;25771;-66
2021/06/14 08:13:11;;;;;;;16.80;6.67;;;;;;;17.54;58.42;101474.95;1740536;80;25806;-64
2021/06/14 08:15:39;;;;;;;16.87;6.95;;;;;;;17.59;58.26;101478.27;1738000;80;25782;-64
2021/06/14 08:25:50;;;;;;;21.55;6.15;;;;;;;17.86;57.87;101470.83;1734092;80;25871;-65
2021/06/14 08:28:16;;;;;;;13.88;6.50;;;;;;;17.99;57.61;101472.70;1739753;80;26489;-64
2021/06/14 08:30:42;;;;;;;15.60;6.92;;;;;;;18.02;56.93;101465.73;1730745;80;25830;-65
2021/06/14 08:33:08;;;;;;;16.30;5.87;;;;;;;18.05;56.91;101470.09;1735148;80;27432;-66
2021/06/14 08:35:36;;;;;;;16.17;5.35;;;;;;;18.15;56.74;101478.06;1743810;80;26271;-67
2021/06/14 08:38:06;;;;;;;14.20;6.22;;;;;;;18.29;56.65;101474.45;1744556;80;25853;-67
2021/06/14 08:40:38;;;;;;;14.73;5.92;;;;;;;18.42;56.47;101470.87;1738796;80;26226;-69
2021/06/14 08:43:09;;;;;;;15.58;6.55;;;;;;;18.49;56.10;101465.94;1731171;80;25872;-65
2021/06/14 08:45:39;;;;;;;16.07;7.25;;;;;;;18.48;55.98;101462.34;1749134;80;27385;-64
2021/06/14 08:48:10;;;;;;;18.32;6.72;;;;;;;18.46;55.84;101476.98;1741382;80;25849;-64
2021/06/14 08:50:38;;;;;;;18.90;7.33;;;;;;;18.34;55.43;101466.41;1764280;80;25956;-67
2021/06/14 08:53:05;;;;;;;14.38;6.35;;;;;;;18.35;55.62;101468.16;1755366;79;26419;-67
2021/06/14 08:55:33;;;;;;;15.53;7.10;;;;;;;18.37;55.63;101458.56;1752664;80;25978;-66
2021/06/14 08:57:59;;;;;;;21.25;7.53;;;;;;;18.49;55.61;101461.38;1751931;80;27463;-66
2021/06/14 09:00:29;;;;;;;19.82;7.50;;;;;;;18.65;55.53;101450.45;1745851;80;25782;-66
2021/06/14 09:02:57;;;;;;;19.52;6.80;;;;;;;18.73;54.72;101460.33;1738411;80;25915;-65
2021/06/14 09:05:24;;;;;;;15.55;6.45;;;;;;;18.72;54.55;101450.44;1741999;80;26516;-65
2021/06/14 09:07:52;;;;;;;16.48;6.08;;;;;;;18.71;54.65;101445.11;1747031;80;26124;-66
2021/06/14 09:10:34;;;;;;;14.03;6.00;;;;;;;18.80;54.57;101446.74;1740960;80;27878;-65
2021/06/14 09:13:20;;;;;;;22.07;6.50;;;;;;;18.91;54.47;101443.33;1748868;80;25774;-66
2021/06/14 09:15:54;;;;;;;12.35;5.08;;;;;;;19.04;54.45;101442.91;1745736;80;25795;-66
2021/06/14 09:18:28;;;;;;;16.85;5.80;;;;;;;19.22;54.01;101445.38;1743451;80;25838;-65
2021/06/14 09:21:02;;;;;;;17.00;6.22;;;;;;;19.27;53.31;101439.14;1754017;80;25801;-65
2021/06/14 09:23:47;;;;;;;16.50;6.30;;;;;;;19.25;52.74;101450.13;1755635;80;27552;-67
2021/06/14 09:26:40;;;;;;;18.82;6.37;;;;;;;19.12;52.65;101437.84;1748260;80;25838;-67
2021/06/14 09:29:17;;;;;;;14.53;6.37;;;;;;;19.04;52.40;101437.47;1748647;80;25770;-66
2021/06/14 09:31:52;;;;;;;18.50;6.30;;;;;;;19.06;52.64;101436.89;1745948;80;27991;-65
2021/06/14 09:34:36;;;;;;;12.73;5.92;;;;;;;19.08;52.69;101433.58;1732832;80;25736;-66
2021/06/14 09:37:06;;;;;;;18.02;6.75;;;;;;;19.10;52.35;101432.99;1735589;80;27469;-65
2021/06/14 09:39:42;;;;;;;17.82;6.50;;;;;;;19.06;52.13;101427.38;1729173;80;25938;-65
2021/06/14 09:42:19;;;;;;;13.53;6.78;;;;;;;19.02;51.74;101423.11;1743532;80;25808;-66
2021/06/14 09:44:47;;;;;;;13.08;5.47;;;;;;;19.01;51.81;101417.30;1731791;80;27945;-66
2021/06/14 09:47:14;;;;;;;17.70;5.78;;;;;;;19.02;51.72;101412.25;1744294;80;25948;-65
2021/06/14 09:49:57;;;;;;;15.08;5.72;;;;;;;19.02;51.40;101415.45;1739660;80;27481;-65
2021/06/14 09:52:26;;;;;;;12.03;5.47;;;;;;;19.04;51.16;101405.35;1742472;80;26577;-65
2021/06/14 09:55:09;;;;;;;13.22;5.97;;;;;;;19.11;51.24;101405.33;1737121;80;25821;-65
2021/06/14 09:57:35;;;;;;;12.28;5.90;;;;;;;19.11;51.07;101399.89;1756891;80;26570;-65
2021/06/14 10:00:18;;;;;;;11.95;5.50;;;;;;;19.17;51.27;101397.25;1760729;80;26391;-65
2021/06/14 10:02:45;;;;;;;25.97;6.30;;;;;;;19.30;51.31;101392.24;1763582;80;27380;-65
2021/06/14 10:05:18;;;;;;;13.13;5.60;;;;;;;19.44;51.37;101392.66;1750880;80;25991;-68
2021/06/14 10:07:51;;;;;;;15.78;6.55;;;;;;;19.63;51.44;101390.94;1756537;80;25902;-68
2021/06/14 10:10:20;;;;;;;18.35;6.05;;;;;;;19.78;51.35;101384.43;1742605;80;25757;-71
2021/06/14 10:12:56;;;;;;;19.25;7.90;;;;;;;19.93;51.22;101374.32;1745607;80;25786;-66
2021/06/14 10:15:35;;;;;;;12.40;6.42;;;;;;;20.02;51.12;101382.70;1740175;80;27483;-65
2021/06/14 10:18:08;;;;;;;14.60;6.08;;;;;;;20.08;50.65;101378.67;1752697;80;25825;-66
2021/06/14 10:20:36;;;;;;;12.85;5.12;;;;;;;20.02;50.18;101390.00;1752120;80;26760;-64
2021/06/14 10:23:03;;;;;;;7.83;5.53;;;;;;;19.90;49.43;101390.86;1748853;80;25782;-64
2021/06/14 10:25:31;;;;;;;21.50;6.35;;;;;;;19.76;49.66;101381.82;1747232;80;25854;-65
2021/06/14 10:27:58;;;;;;;17.90;6.20;;;;;;;19.67;49.41;101380.23;1757688;80;27406;-64
2021/06/14 10:30:26;;;;;;;15.18;6.33;;;;;;;19.62;49.58;101390.06;1742127;80;25912;-74
2021/06/14 10:32:52;;;;;;;14.98;6.53;;;;;;;19.64;49.71;101379.08;1750913;80;25751;-72
2021/06/14 10:35:20;;;;;;;19.23;6.45;;;;;;;19.75;49.14;101377.84;1744427;80;25777;-72
2021/06/14 10:37:55;;;;;;;9.18;5.30;;;;;;;19.81;49.48;101380.14;1747825;80;25877;-72
2021/06/14 10:40:27;;;;;;;12.23;5.80;;;;;;;19.87;49.27;101373.39;1736584;80;29533;-73
2021/06/14 10:42:56;;;;;;;16.27;6.22;;;;;;;19.99;49.42;101369.31;1742383;80;25957;-74
2021/06/14 10:45:27;;;;;;;18.07;6.40;;;;;;;20.22;49.28;101367.66;1703393;81;26167;-74
2021/06/14 10:47:55;;;;;;;;;;;;;;;20.39;49.09;101371.43;1671266;84;27838;-73
2021/06/14 10:50:29;;;;;;;11.55;5.65;;;;;;;20.48;49.03;101363.56;1703533;82;26550;-72
2021/06/14 10:52:55;;;;;;;17.00;5.87;;;;;;;20.52;48.60;101365.95;1704917;82;29430;-72
2021/06/14 10:55:30;;;;;;;16.65;6.65;;;;;;;20.63;48.60;101355.63;1698011;82;25819;-72
2021/06/14 10:57:58;;;;;;;14.35;5.90;;;;;;;20.73;48.50;101349.88;1714640;82;25739;-73
2021/06/14 11:00:35;;;;;;;11.85;6.47;;;;;;;20.70;48.18;101344.16;1703951;82;25784;-72
2021/06/14 11:03:09;;;;;;;15.05;6.17;;;;;;;20.73;48.31;101345.30;1693688;82;25928;-74
2021/06/14 11:05:42;;;;;;;14.83;6.45;;;;;;;20.76;48.21;101351.01;1699878;82;28050;-73
2021/06/14 11:08:23;;;;;;;12.53;6.35;;;;;;;20.65;46.97;101345.49;1691430;81;25875;-74
2021/06/14 11:11:06;;;;;;;14.18;5.87;;;;;;;20.62;47.49;101342.50;1698766;82;26256;-73
2021/06/14 11:13:28;;;;;;;15.43;6.65;;;;;;;20.66;47.20;101347.23;1707529;82;25983;-73
2021/06/14 11:15:59;;;;;;;16.40;5.97;;;;;;;20.62;47.18;101345.72;1703401;82;25803;-74
2021/06/14 11:18:30;;;;;;;10.35;5.78;;;;;;;20.66;46.96;101336.34;1725319;82;28118;-71
2021/06/14 11:21:19;;;;;;;20.85;8.75;;;;;;;20.70;46.54;101334.63;1669303;83;26586;-72
2021/06/14 11:23:49;;;;;;;17.67;6.45;;;;;;;20.82;46.72;101330.58;1686775;82;25867;-72
2021/06/14 11:26:28;;;;;;;13.53;5.87;;;;;;;21.09;46.74;101331.20;1703697;82;25791;-72
2021/06/14 11:28:54;;;;;;;14.05;5.65;;;;;;;21.30;46.15;101328.72;1703196;82;25962;-74
2021/06/14 11:31:27;;;;;;;14.78;5.60;;;;;;;21.24;45.89;101329.19;1708149;82;27498;-74